Terminal Aerodrome Forecast
Issued by NWS Wilmington, NC

Home | Current Version | Previous Version | Text Only | Print | Product List | Glossary On
Versions: 1 2 3 4 5 6 7 8 9 10 11 12 13
000
FTUS42 KILM 260520
TAFLBT
TAF
KLBT 260520Z 2606/2706 20006KT P6SM SCT080 BKN300
     FM261300 23006KT P6SM BKN300
     FM261800 19008KT P6SM SCT100 BKN300
     FM270000 18004KT P6SM SCT250=

USA.gov is the U.S. government's official web portal to all federal, state and local government web resources and services.